Time;durP1;ratioP1;P1;durP2;ratioP2;P2;SDS_P1;SDS_P2;PMS_P1;PMS_P2;Temp;Humidity;BMP_temperature;BMP_pressure;BME280_temperature;BME280_humidity;BME280_pressure;Samples;Min_cycle;Max_cycle;Signal;HPM_P1;HPM_P2
2024/02/09 00:00:32;;;;;;;21.30;4.50;;;12.60;99.90;;;;;;5027081;28;20435;-76
2024/02/09 00:03:18;;;;;;;15.90;3.77;;;12.70;99.90;;;;;;5012481;28;20443;-75
2024/02/09 00:06:05;;;;;;;14.27;4.20;;;12.60;99.90;;;;;;5023571;28;21081;-75
2024/02/09 00:08:51;;;;;;;18.03;4.60;;;12.70;99.90;;;;;;5031292;28;20438;-75
2024/02/09 00:11:38;;;;;;;16.90;3.77;;;12.60;99.90;;;;;;5016905;28;20429;-76
2024/02/09 00:14:23;;;;;;;18.67;5.47;;;12.60;99.90;;;;;;5007661;28;20411;-76
2024/02/09 00:17:09;;;;;;;16.13;5.40;;;12.60;99.90;;;;;;5019913;28;20535;-77
2024/02/09 00:19:54;;;;;;;13.30;4.40;;;12.60;99.90;;;;;;5014848;28;20411;-75
2024/02/09 00:22:40;;;;;;;14.50;5.10;;;12.70;99.90;;;;;;5016515;28;20440;-76
2024/02/09 00:25:26;;;;;;;24.27;4.60;;;12.60;99.90;;;;;;5018311;28;20794;-75
2024/02/09 00:28:13;;;;;;;19.37;4.70;;;12.70;99.90;;;;;;5006927;28;20539;-76
2024/02/09 00:30:59;;;;;;;15.70;4.40;;;12.70;99.90;;;;;;5023124;28;20799;-76
2024/02/09 00:33:44;;;;;;;14.93;4.20;;;12.70;99.90;;;;;;5016810;28;20433;-77
2024/02/09 00:36:33;;;;;;;22.43;5.23;;;12.70;99.90;;;;;;5008553;28;20456;-77
2024/02/09 00:39:18;;;;;;;23.70;4.37;;;12.70;99.90;;;;;;5009370;28;20411;-77
2024/02/09 00:42:04;;;;;;;18.00;4.20;;;12.70;99.90;;;;;;5022218;28;20514;-77
2024/02/09 00:44:52;;;;;;;16.67;4.30;;;12.70;99.90;;;;;;5011755;28;20495;-73
2024/02/09 00:47:37;;;;;;;20.53;6.00;;;12.70;99.90;;;;;;5008673;28;20539;-75
2024/02/09 00:50:23;;;;;;;15.03;4.70;;;12.70;99.90;;;;;;5008655;28;20484;-76
2024/02/09 00:53:10;;;;;;;33.70;4.90;;;12.70;99.90;;;;;;5019445;28;20448;-76
2024/02/09 00:55:55;;;;;;;18.23;5.13;;;12.70;99.90;;;;;;5014896;28;20426;-75
2024/02/09 00:58:41;;;;;;;16.93;5.20;;;12.60;99.90;;;;;;5025461;28;20456;-75
2024/02/09 01:01:32;;;;;;;14.53;4.50;;;12.50;99.90;;;;;;5005644;28;20919;-76
2024/02/09 01:04:18;;;;;;;13.80;4.77;;;12.50;99.90;;;;;;5008185;28;20488;-75
2024/02/09 01:07:05;;;;;;;18.63;5.33;;;12.50;99.90;;;;;;5014924;28;20601;-75
2024/02/09 01:09:50;;;;;;;13.67;4.20;;;12.30;99.90;;;;;;5010727;28;20662;-76
2024/02/09 02:46:57;;;;;;;6.27;2.63;;;11.20;99.90;;;;;;5020690;28;20459;-76
2024/02/09 03:04:57;;;;;;;11.10;3.83;;;11.20;99.90;;;;;;5019582;28;20437;-76
2024/02/09 03:07:43;;;;;;;11.83;2.57;;;11.20;99.90;;;;;;5007234;28;20513;-76
2024/02/09 03:10:30;;;;;;;4.67;2.43;;;11.20;99.90;;;;;;5016765;28;20574;-75
2024/02/09 03:13:15;;;;;;;5.40;2.90;;;11.20;99.90;;;;;;5026623;28;20439;-75
2024/02/09 03:16:01;;;;;;;8.33;2.27;;;11.20;99.90;;;;;;5026031;28;20840;-74
2024/02/09 03:18:46;;;;;;;5.43;1.70;;;11.20;99.90;;;;;;5020606;28;20514;-76
2024/02/09 03:21:35;;;;;;;4.17;1.83;;;11.20;99.90;;;;;;5013457;28;20420;-76
2024/02/09 03:24:20;;;;;;;7.40;2.07;;;11.10;99.90;;;;;;5017685;28;20432;-76
2024/02/09 03:27:08;;;;;;;4.70;2.40;;;11.20;99.90;;;;;;5023511;28;20451;-75
2024/02/09 03:29:54;;;;;;;5.07;1.70;;;11.20;99.90;;;;;;5020187;28;20432;-74
2024/02/09 03:32:44;;;;;;;6.20;1.83;;;11.20;99.90;;;;;;5015847;28;20451;-76
2024/02/09 03:35:31;;;;;;;6.80;2.27;;;11.10;99.90;;;;;;5014727;28;20507;-75
2024/02/09 03:38:19;;;;;;;7.07;2.90;;;11.10;99.90;;;;;;5018915;28;20431;-76
2024/02/09 03:41:05;;;;;;;6.30;1.87;;;11.10;99.90;;;;;;5021579;28;20404;-76
2024/02/09 03:43:52;;;;;;;5.63;2.30;;;11.10;99.90;;;;;;5020146;28;20491;-76
2024/02/09 03:46:38;;;;;;;4.87;2.23;;;11.10;99.90;;;;;;5026586;28;20458;-76
2024/02/09 03:49:23;;;;;;;8.97;2.27;;;11.10;99.90;;;;;;5019153;28;20482;-75
2024/02/09 03:52:09;;;;;;;9.27;2.00;;;11.10;99.90;;;;;;5014677;28;20970;-76
2024/02/09 03:54:56;;;;;;;5.33;1.70;;;11.10;99.90;;;;;;5024978;28;20432;-76
2024/02/09 03:57:42;;;;;;;3.53;1.90;;;11.10;99.90;;;;;;5015660;28;20436;-75
2024/02/09 04:00:29;;;;;;;6.57;2.10;;;11.20;99.90;;;;;;5021740;28;20982;-76
2024/02/09 04:03:15;;;;;;;7.97;2.50;;;11.20;99.90;;;;;;5019971;28;20474;-75
2024/02/09 04:06:02;;;;;;;7.03;2.20;;;11.20;99.90;;;;;;5017953;28;20471;-76
2024/02/09 04:08:48;;;;;;;10.53;2.63;;;11.20;99.90;;;;;;5014651;28;20472;-75
2024/02/09 04:11:33;;;;;;;4.13;1.97;;;11.20;99.90;;;;;;5022417;28;20399;-76
2024/02/09 04:14:19;;;;;;;5.47;1.70;;;11.20;99.90;;;;;;5018842;28;20800;-76
2024/02/09 04:17:06;;;;;;;6.30;2.33;;;11.20;99.90;;;;;;5022061;28;20443;-75
2024/02/09 04:19:53;;;;;;;4.37;2.23;;;11.20;99.90;;;;;;5018675;28;20413;-76
2024/02/09 04:22:39;;;;;;;2.67;1.67;;;11.20;99.90;;;;;;5019963;28;20951;-76
2024/02/09 04:25:25;;;;;;;6.23;2.07;;;11.20;99.90;;;;;;5014166;28;20532;-75
2024/02/09 04:28:12;;;;;;;4.90;2.47;;;11.20;99.90;;;;;;5018714;28;20470;-76
2024/02/09 04:30:57;;;;;;;4.87;2.30;;;11.20;99.90;;;;;;5021996;28;20413;-75
2024/02/09 04:33:44;;;;;;;4.93;1.87;;;11.20;99.90;;;;;;5021162;28;20428;-75
2024/02/09 04:36:30;;;;;;;5.67;2.17;;;11.20;99.90;;;;;;5018482;28;20545;-76
2024/02/09 04:39:18;;;;;;;7.50;2.13;;;11.20;99.90;;;;;;5025636;28;20928;-75
2024/02/09 04:42:04;;;;;;;4.03;2.23;;;11.20;99.90;;;;;;5017985;28;20434;-76
2024/02/09 04:44:50;;;;;;;5.40;1.93;;;11.20;99.90;;;;;;5021597;28;20425;-76
2024/02/09 04:47:35;;;;;;;6.87;2.93;;;11.20;99.90;;;;;;5014783;28;20432;-76
2024/02/09 04:50:23;;;;;;;7.43;2.30;;;11.20;99.90;;;;;;5021951;28;20506;-75
2024/02/09 04:53:11;;;;;;;4.30;2.00;;;11.20;99.90;;;;;;5019656;28;20537;-76
2024/02/09 04:55:56;;;;;;;5.10;2.20;;;11.20;99.90;;;;;;5025507;28;21028;-76
2024/02/09 04:58:44;;;;;;;6.60;2.40;;;11.20;99.90;;;;;;5017425;28;20399;-76
2024/02/09 05:01:30;;;;;;;9.00;2.07;;;11.20;99.90;;;;;;5019264;28;20584;-75
2024/02/09 05:04:16;;;;;;;11.53;2.90;;;11.20;99.90;;;;;;5018552;28;20442;-75
2024/02/09 05:07:04;;;;;;;10.70;2.80;;;11.20;99.90;;;;;;5022313;28;20503;-75
2024/02/09 05:09:49;;;;;;;5.20;2.00;;;11.20;99.90;;;;;;5020261;28;20587;-75
2024/02/09 05:12:35;;;;;;;6.00;2.13;;;11.20;99.90;;;;;;5014504;28;20430;-76
2024/02/09 05:15:21;;;;;;;6.73;2.40;;;11.00;99.90;;;;;;5017815;28;20426;-76
2024/02/09 05:18:06;;;;;;;5.10;2.00;;;11.00;99.90;;;;;;5014342;28;20419;-76
2024/02/09 05:20:52;;;;;;;3.67;2.10;;;11.00;99.90;;;;;;5022818;28;20411;-76
2024/02/09 05:23:39;;;;;;;8.10;4.70;;;11.00;99.90;;;;;;5019057;28;20425;-75
2024/02/09 05:26:25;;;;;;;8.90;3.30;;;11.00;99.90;;;;;;5017432;28;20426;-76
2024/02/09 05:29:11;;;;;;;11.30;4.13;;;11.10;99.90;;;;;;5022128;28;20467;-75
2024/02/09 05:31:58;;;;;;;5.97;2.40;;;11.10;99.90;;;;;;5020644;28;20499;-76
2024/02/09 05:34:45;;;;;;;7.17;2.93;;;11.10;99.90;;;;;;5020405;28;20421;-76
2024/02/09 05:37:32;;;;;;;6.17;2.70;;;11.10;99.90;;;;;;5016211;28;20518;-76
2024/02/09 05:40:19;;;;;;;4.63;2.73;;;11.10;99.90;;;;;;5021532;28;20895;-76
2024/02/09 05:43:05;;;;;;;7.90;3.70;;;11.20;99.90;;;;;;5029866;28;20435;-76
2024/02/09 05:45:50;;;;;;;7.30;3.80;;;11.20;99.90;;;;;;5026117;28;20463;-74
2024/02/09 05:48:36;;;;;;;9.10;3.70;;;11.20;99.90;;;;;;5026911;28;20478;-76
2024/02/09 05:51:23;;;;;;;9.73;3.73;;;11.20;99.90;;;;;;5018884;28;20413;-76
2024/02/09 05:54:08;;;;;;;8.93;4.70;;;11.30;99.90;;;;;;5022295;28;20414;-75
2024/02/09 05:56:55;;;;;;;11.10;4.50;;;11.30;99.90;;;;;;5031227;28;20442;-76
2024/02/09 05:59:44;;;;;;;11.10;5.10;;;11.40;99.90;;;;;;5026124;28;20881;-75
2024/02/09 06:02:31;;;;;;;9.30;5.00;;;11.30;99.90;;;;;;5021871;28;20457;-76
2024/02/09 06:05:17;;;;;;;8.47;4.87;;;11.40;99.90;;;;;;5018228;28;20530;-76
2024/02/09 06:08:03;;;;;;;13.47;5.00;;;11.40;99.90;;;;;;5018008;28;20876;-76
2024/02/09 06:10:49;;;;;;;17.90;5.40;;;11.40;99.90;;;;;;5021283;28;20477;-76
2024/02/09 06:13:35;;;;;;;8.90;5.37;;;11.40;99.90;;;;;;5023376;28;20410;-76
2024/02/09 06:16:22;;;;;;;6.97;4.40;;;11.30;99.90;;;;;;5020355;28;20546;-75
2024/02/09 06:19:08;;;;;;;11.97;4.70;;;11.40;99.90;;;;;;5019118;28;20423;-76
2024/02/09 06:21:55;;;;;;;9.43;4.40;;;11.40;99.90;;;;;;5027313;28;20435;-75
2024/02/09 06:24:41;;;;;;;15.50;8.07;;;11.30;99.90;;;;;;5019552;28;20422;-75
2024/02/09 06:27:26;;;;;;;14.17;5.27;;;11.40;99.90;;;;;;5022020;28;20896;-74
2024/02/09 06:30:14;;;;;;;17.03;5.80;;;11.40;99.90;;;;;;5010415;28;20471;-75
2024/02/09 06:33:01;;;;;;;10.67;4.90;;;11.40;99.90;;;;;;5023760;28;20550;-75
2024/02/09 06:35:47;;;;;;;8.60;5.23;;;11.30;99.90;;;;;;5024376;28;20453;-75
2024/02/09 06:38:33;;;;;;;18.97;6.23;;;11.30;99.90;;;;;;5018381;28;20423;-74
2024/02/09 06:41:19;;;;;;;12.50;5.07;;;11.30;99.90;;;;;;5018741;28;20521;-74
2024/02/09 06:44:05;;;;;;;16.67;4.90;;;11.30;99.90;;;;;;5021615;28;20977;-74
2024/02/09 06:46:52;;;;;;;14.47;5.93;;;11.30;99.90;;;;;;5024403;28;20442;-75
2024/02/09 06:49:37;;;;;;;11.23;6.90;;;11.30;99.90;;;;;;5025600;28;20969;-74
2024/02/09 06:52:23;;;;;;;10.10;5.43;;;11.30;99.90;;;;;;5031717;28;20815;-74
2024/02/09 06:55:11;;;;;;;8.90;4.80;;;11.30;99.90;;;;;;5016932;28;20421;-74
2024/02/09 06:57:57;;;;;;;12.03;4.90;;;11.30;99.90;;;;;;5023124;28;20896;-74
2024/02/09 07:00:45;;;;;;;15.67;4.63;;;11.30;99.90;;;;;;5013569;28;20905;-75
2024/02/09 07:03:31;;;;;;;17.33;5.70;;;11.40;99.90;;;;;;5019445;28;20869;-75
2024/02/09 07:06:19;;;;;;;19.00;5.50;;;11.40;99.90;;;;;;5017894;28;20837;-74
2024/02/09 07:09:07;;;;;;;13.90;4.40;;;11.40;99.90;;;;;;5028024;28;20449;-74
2024/02/09 07:11:53;;;;;;;13.20;4.87;;;11.40;99.90;;;;;;5021219;28;20793;-74
2024/02/09 07:14:38;;;;;;;15.00;5.30;;;11.30;99.90;;;;;;5012866;28;20444;-75
2024/02/09 07:17:25;;;;;;;12.27;4.70;;;11.40;99.90;;;;;;5021179;28;20439;-75
2024/02/09 07:20:16;;;;;;;9.70;4.33;;;11.40;99.90;;;;;;5018311;28;20435;-74
2024/02/09 07:23:05;;;;;;;11.93;4.23;;;11.40;99.90;;;;;;5031531;28;20423;-74
2024/02/09 07:25:50;;;;;;;9.07;4.23;;;11.40;99.90;;;;;;5029144;28;20638;-74
2024/02/09 07:28:40;;;;;;;17.57;4.13;;;11.50;99.90;;;;;;5021249;28;20625;-75
2024/02/09 07:31:26;;;;;;;12.60;4.70;;;11.50;99.90;;;;;;5027556;28;20797;-75
2024/02/09 07:34:14;;;;;;;7.80;3.40;;;11.40;99.90;;;;;;5022252;28;20432;-75
2024/02/09 07:37:03;;;;;;;7.13;3.47;;;11.40;99.90;;;;;;5022797;28;20538;-76
2024/02/09 07:39:49;;;;;;;8.97;3.60;;;11.40;99.90;;;;;;5021951;28;20403;-74
2024/02/09 07:42:34;;;;;;;11.90;3.73;;;11.40;99.90;;;;;;5026504;28;20432;-75
2024/02/09 07:45:21;;;;;;;6.70;3.70;;;11.50;99.90;;;;;;5020590;28;20959;-75
2024/02/09 07:48:07;;;;;;;15.23;3.70;;;11.50;99.90;;;;;;5021425;28;20428;-76
2024/02/09 07:50:53;;;;;;;10.70;3.97;;;11.50;99.90;;;;;;5023264;28;20427;-76
2024/02/09 07:53:40;;;;;;;16.70;4.20;;;11.60;99.90;;;;;;5026148;28;20492;-76
2024/02/09 07:56:25;;;;;;;8.57;3.60;;;11.60;99.90;;;;;;5024368;28;20994;-75
2024/02/09 07:59:11;;;;;;;11.27;3.30;;;11.60;99.90;;;;;;5024583;28;20466;-76
2024/02/09 08:01:57;;;;;;;8.00;3.33;;;11.60;99.90;;;;;;5026210;28;20435;-76
2024/02/09 08:04:42;;;;;;;10.57;3.87;;;11.70;99.90;;;;;;5022805;28;20444;-75
2024/02/09 08:07:28;;;;;;;12.77;3.67;;;11.70;99.90;;;;;;5020113;28;20436;-76
2024/02/09 08:10:15;;;;;;;12.20;3.37;;;11.80;99.90;;;;;;5014617;28;20537;-75
2024/02/09 08:13:01;;;;;;;7.50;2.60;;;11.80;99.90;;;;;;5024811;28;20474;-76
2024/02/09 08:15:47;;;;;;;12.67;3.30;;;11.80;99.90;;;;;;5026276;28;20469;-76
2024/02/09 08:18:33;;;;;;;7.10;3.13;;;11.90;99.90;;;;;;5029039;28;20431;-76
2024/02/09 08:21:20;;;;;;;6.33;3.47;;;11.90;99.90;;;;;;5029200;28;20423;-76
2024/02/09 08:24:06;;;;;;;8.00;3.80;;;11.90;99.90;;;;;;5025607;28;20801;-75
2024/02/09 08:26:53;;;;;;;8.63;3.50;;;12.00;99.90;;;;;;5021659;28;20566;-76
2024/02/09 08:29:39;;;;;;;19.23;3.50;;;12.00;99.90;;;;;;5026429;28;20478;-76
2024/02/09 08:32:27;;;;;;;8.53;3.50;;;12.00;99.90;;;;;;5019841;28;20402;-75
2024/02/09 08:35:12;;;;;;;11.00;3.77;;;12.00;99.90;;;;;;5023728;28;20544;-75
2024/02/09 08:37:58;;;;;;;8.07;3.17;;;12.10;99.90;;;;;;5018736;28;20400;-77
2024/02/09 08:40:44;;;;;;;13.73;3.87;;;12.10;99.90;;;;;;5022913;28;20490;-76
2024/02/09 08:43:31;;;;;;;12.87;3.10;;;12.10;99.90;;;;;;5025201;28;20407;-75
2024/02/09 08:46:17;;;;;;;8.13;3.07;;;12.10;99.90;;;;;;5019898;28;20437;-76
2024/02/09 08:49:03;;;;;;;17.73;3.40;;;12.20;99.90;;;;;;5026333;28;20532;-76
2024/02/09 08:51:49;;;;;;;8.57;3.00;;;12.20;99.90;;;;;;5023848;28;20411;-76
2024/02/09 08:54:35;;;;;;;7.20;2.93;;;12.20;99.90;;;;;;5024275;28;20969;-75
2024/02/09 08:57:21;;;;;;;9.00;3.00;;;12.30;99.90;;;;;;5023563;28;20796;-76
2024/02/09 09:00:09;;;;;;;9.00;2.80;;;12.40;99.90;;;;;;5026209;28;20431;-76
2024/02/09 09:02:55;;;;;;;9.43;3.50;;;12.50;99.90;;;;;;5023650;28;20402;-74
2024/02/09 09:05:41;;;;;;;6.67;2.93;;;12.50;99.90;;;;;;5027326;28;20830;-76
2024/02/09 09:08:26;;;;;;;10.93;3.00;;;12.50;99.90;;;;;;5021027;28;20441;-76
2024/02/09 09:11:12;;;;;;;8.70;2.77;;;12.60;99.90;;;;;;5019451;28;20393;-76
2024/02/09 09:14:00;;;;;;;10.00;2.97;;;12.60;99.90;;;;;;5020927;28;20402;-76
2024/02/09 09:16:47;;;;;;;7.73;2.70;;;12.70;99.90;;;;;;5028889;28;20914;-76
2024/02/09 09:19:32;;;;;;;6.17;3.00;;;12.70;99.90;;;;;;5030059;28;20423;-76
2024/02/09 09:22:18;;;;;;;6.97;2.10;;;12.70;99.90;;;;;;5025501;28;20839;-76
2024/02/09 09:25:07;;;;;;;5.10;2.30;;;12.70;99.90;;;;;;5029253;28;20476;-76
2024/02/09 09:27:52;;;;;;;12.07;3.20;;;12.70;99.90;;;;;;5024992;28;20769;-76
2024/02/09 09:30:38;;;;;;;10.67;3.37;;;12.70;99.90;;;;;;5026972;28;20494;-76
2024/02/09 09:33:25;;;;;;;6.90;2.77;;;12.80;99.90;;;;;;5025130;28;20519;-75
2024/02/09 09:36:10;;;;;;;6.47;2.50;;;12.90;99.90;;;;;;5028802;28;20453;-77
2024/02/09 09:38:56;;;;;;;11.10;2.90;;;12.90;99.90;;;;;;5028275;28;20425;-75
2024/02/09 09:41:42;;;;;;;8.20;3.53;;;12.90;99.90;;;;;;5028670;28;21002;-75
2024/02/09 09:44:27;;;;;;;9.53;2.67;;;13.00;99.90;;;;;;5030799;28;20435;-77
2024/02/09 09:47:14;;;;;;;8.70;2.43;;;13.00;99.90;;;;;;5031546;28;20443;-77
2024/02/09 09:50:05;;;;;;;5.93;2.67;;;13.00;99.90;;;;;;5029946;28;20992;-76
2024/02/09 09:52:54;;;;;;;4.80;2.20;;;13.00;99.90;;;;;;5030747;28;20406;-75
2024/02/09 09:55:40;;;;;;;8.70;3.00;;;13.10;99.90;;;;;;5029064;28;20455;-75
2024/02/09 09:58:26;;;;;;;5.93;3.20;;;13.20;99.90;;;;;;5023327;28;20949;-76
2024/02/09 10:01:12;;;;;;;8.40;3.37;;;13.20;99.90;;;;;;5032404;28;20397;-75
2024/02/09 10:03:58;;;;;;;11.43;3.17;;;13.20;99.90;;;;;;5029862;28;20458;-76
2024/02/09 10:06:45;;;;;;;9.20;3.97;;;13.20;99.90;;;;;;5021651;28;20451;-76
2024/02/09 10:09:31;;;;;;;8.70;2.70;;;13.30;99.90;;;;;;5023862;28;20591;-75
2024/02/09 10:12:17;;;;;;;7.70;3.70;;;13.30;99.90;;;;;;5020598;28;20399;-77
2024/02/09 10:15:05;;;;;;;6.23;2.87;;;13.30;99.90;;;;;;5031140;28;20418;-76
2024/02/09 10:17:50;;;;;;;7.30;3.47;;;13.40;99.90;;;;;;5030589;28;21043;-76
2024/02/09 10:20:36;;;;;;;9.97;4.10;;;13.40;99.90;;;;;;5031538;28;20403;-75
2024/02/09 10:23:23;;;;;;;9.20;2.73;;;13.50;99.90;;;;;;5020267;28;20479;-76
2024/02/09 10:26:10;;;;;;;10.80;4.40;;;13.50;99.90;;;;;;5017596;28;20439;-75
2024/02/09 10:28:56;;;;;;;11.40;4.07;;;13.50;99.90;;;;;;5031009;28;20423;-76
2024/02/09 10:31:41;;;;;;;9.10;3.40;;;13.50;99.90;;;;;;5030539;28;20790;-76
2024/02/09 10:34:27;;;;;;;15.60;6.43;;;13.50;99.90;;;;;;5032261;28;20481;-76
2024/02/09 10:37:13;;;;;;;7.30;2.97;;;13.50;99.90;;;;;;5024524;28;20407;-76
2024/02/09 10:40:00;;;;;;;8.00;2.77;;;13.60;99.90;;;;;;5023918;28;20403;-76
2024/02/09 10:42:48;;;;;;;7.00;3.30;;;13.60;99.90;;;;;;5029545;28;20440;-75
2024/02/09 10:45:36;;;;;;;7.40;3.77;;;13.60;99.90;;;;;;5030728;28;20467;-76
2024/02/09 10:48:24;;;;;;;8.27;2.50;;;13.60;99.90;;;;;;5030933;28;20488;-75
2024/02/09 10:51:13;;;;;;;6.00;2.90;;;13.70;99.90;;;;;;5031589;28;20470;-76
2024/02/09 10:54:09;;;;;;;11.43;2.87;;;13.70;99.90;;;;;;5029085;28;20407;-76
2024/02/09 10:56:58;;;;;;;9.33;2.77;;;13.70;99.90;;;;;;5023801;28;20471;-76
2024/02/09 10:59:44;;;;;;;7.40;2.60;;;13.70;99.90;;;;;;5029165;28;20790;-76
2024/02/09 11:02:30;;;;;;;17.60;3.40;;;13.70;99.90;;;;;;5032032;28;20413;-76
2024/02/09 11:05:16;;;;;;;8.23;2.60;;;13.70;99.90;;;;;;5019206;28;20783;-76
2024/02/09 11:08:02;;;;;;;7.57;2.63;;;13.80;99.90;;;;;;5023929;28;20403;-76
2024/02/09 11:10:58;;;;;;;6.80;2.50;;;13.80;99.90;;;;;;5026504;28;20944;-76
2024/02/09 11:13:45;;;;;;;8.80;3.53;;;13.80;99.90;;;;;;5024632;28;20407;-76
2024/02/09 11:16:30;;;;;;;14.87;3.00;;;13.80;99.90;;;;;;5030463;28;20580;-75
2024/02/09 11:19:17;;;;;;;8.97;2.43;;;13.80;99.90;;;;;;5030813;28;20499;-76
2024/02/09 11:22:04;;;;;;;13.13;3.30;;;13.80;99.90;;;;;;5020669;28;20960;-76
2024/02/09 11:24:51;;;;;;;9.47;2.80;;;13.80;99.90;;;;;;5029071;28;20522;-76
2024/02/09 11:27:39;;;;;;;6.47;2.57;;;13.80;99.90;;;;;;5031214;28;20564;-76
2024/02/09 11:30:26;;;;;;;7.93;2.43;;;13.80;99.90;;;;;;5015932;28;20475;-76
2024/02/09 11:33:14;;;;;;;8.63;3.17;;;13.80;99.90;;;;;;5030074;28;20780;-76
2024/02/09 11:36:02;;;;;;;4.97;2.50;;;13.80;99.90;;;;;;5027547;28;20456;-76
2024/02/09 11:38:48;;;;;;;7.03;2.50;;;13.80;99.90;;;;;;5027139;28;20479;-76
2024/02/09 11:41:34;;;;;;;11.73;3.83;;;13.80;99.90;;;;;;5030419;28;20432;-77
2024/02/09 11:44:19;;;;;;;9.43;3.17;;;13.80;99.90;;;;;;5019442;28;20432;-76
2024/02/09 11:47:06;;;;;;;10.00;3.50;;;13.80;99.90;;;;;;5023952;28;20832;-75
2024/02/09 11:49:53;;;;;;;15.87;3.30;;;13.80;99.90;;;;;;5029391;28;20949;-77
2024/02/09 11:52:39;;;;;;;11.13;2.93;;;13.80;99.90;;;;;;5030425;28;20993;-75
2024/02/09 11:55:25;;;;;;;17.10;3.07;;;13.80;99.90;;;;;;5024068;28;20496;-76
2024/02/09 11:58:11;;;;;;;25.97;4.67;;;13.80;99.90;;;;;;5030435;28;20516;-76
2024/02/09 12:00:57;;;;;;;6.90;2.50;;;13.90;99.90;;;;;;5030281;28;20893;-76
2024/02/09 12:03:44;;;;;;;6.93;2.93;;;13.90;99.90;;;;;;5021130;28;20806;-76
2024/02/09 12:06:30;;;;;;;9.03;3.00;;;13.90;99.90;;;;;;5024105;28;21015;-76
2024/02/09 12:09:16;;;;;;;6.63;2.10;;;13.90;99.90;;;;;;5022764;28;20429;-75
2024/02/09 12:12:03;;;;;;;8.90;2.60;;;13.90;99.90;;;;;;5029756;28;20410;-76
2024/02/09 12:14:49;;;;;;;6.20;2.70;;;14.00;99.90;;;;;;5030377;28;20431;-76
2024/02/09 12:17:35;;;;;;;13.57;3.80;;;13.90;99.90;;;;;;5030874;28;20406;-76
2024/02/09 12:20:22;;;;;;;8.60;2.63;;;14.00;99.90;;;;;;5029039;28;20491;-76
2024/02/09 12:23:08;;;;;;;7.00;3.03;;;14.00;99.90;;;;;;5020778;28;20515;-75
2024/02/09 12:25:54;;;;;;;5.37;2.73;;;14.10;99.90;;;;;;5030078;28;20489;-75
2024/02/09 12:28:40;;;;;;;13.50;3.30;;;14.10;99.90;;;;;;5030486;28;20406;-76
2024/02/09 12:31:28;;;;;;;6.77;2.43;;;14.10;99.90;;;;;;5006063;28;20473;-75
2024/02/09 12:34:16;;;;;;;6.07;3.00;;;14.10;99.90;;;;;;5017613;28;20954;-76
2024/02/09 12:37:04;;;;;;;12.77;3.20;;;14.10;99.90;;;;;;5011385;28;20418;-76
2024/02/09 12:39:53;;;;;;;7.13;2.80;;;14.10;99.90;;;;;;5007915;28;20430;-76
2024/02/09 12:42:41;;;;;;;12.50;2.60;;;14.20;99.90;;;;;;5023718;28;20520;-75
2024/02/09 12:45:28;;;;;;;12.10;3.10;;;14.20;99.90;;;;;;5008241;28;20828;-75
2024/02/09 12:48:20;;;;;;;7.60;2.43;;;14.20;99.90;;;;;;5019046;28;20407;-76
2024/02/09 12:51:06;;;;;;;5.87;2.53;;;14.20;99.90;;;;;;5004947;28;20827;-77
2024/02/09 12:53:53;;;;;;;7.93;3.07;;;14.30;99.90;;;;;;5003998;28;20798;-76
2024/02/09 12:56:39;;;;;;;15.63;3.40;;;14.30;99.90;;;;;;5026741;28;20443;-76
2024/02/09 12:59:25;;;;;;;11.63;4.27;;;14.30;99.90;;;;;;4998861;28;20513;-75
2024/02/09 13:02:11;;;;;;;11.10;3.40;;;14.40;99.90;;;;;;5008668;28;20629;-74
2024/02/09 13:04:57;;;;;;;6.90;3.13;;;14.50;99.90;;;;;;5011621;28;20427;-74
2024/02/09 13:07:43;;;;;;;15.37;3.30;;;14.60;99.90;;;;;;4999491;28;21241;-76
2024/02/09 13:10:30;;;;;;;8.10;2.97;;;14.60;99.90;;;;;;5022801;28;20582;-76
2024/02/09 13:13:16;;;;;;;8.33;2.67;;;14.60;99.90;;;;;;5004560;28;20396;-75
2024/02/09 13:16:02;;;;;;;5.50;2.40;;;14.60;99.90;;;;;;5010559;28;20461;-76
2024/02/09 13:18:48;;;;;;;13.07;3.10;;;14.50;99.90;;;;;;5008060;28;20449;-76
2024/02/09 13:21:34;;;;;;;10.03;2.90;;;14.50;99.90;;;;;;5006938;28;20501;-75
2024/02/09 13:24:20;;;;;;;8.30;3.00;;;14.50;99.90;;;;;;5024433;28;20398;-76
2024/02/09 13:27:12;;;;;;;9.40;3.00;;;14.50;99.90;;;;;;5011709;28;20428;-76
2024/02/09 13:29:58;;;;;;;8.50;3.10;;;14.40;99.90;;;;;;5007848;28;20449;-76
2024/02/09 13:32:47;;;;;;;6.87;2.70;;;14.40;99.90;;;;;;5019514;28;20462;-75
2024/02/09 13:35:32;;;;;;;10.30;3.53;;;14.40;99.90;;;;;;5019367;28;20533;-76
2024/02/09 13:38:18;;;;;;;6.20;2.93;;;14.30;99.90;;;;;;5011360;28;20886;-75
2024/02/09 13:41:04;;;;;;;8.87;2.43;;;14.40;99.90;;;;;;5014432;28;20564;-76
2024/02/09 13:43:53;;;;;;;8.07;2.83;;;14.40;99.90;;;;;;5020505;28;20480;-75
2024/02/09 13:46:39;;;;;;;9.27;3.43;;;14.40;99.90;;;;;;5007635;28;20468;-77
2024/02/09 13:49:24;;;;;;;10.20;3.70;;;14.30;99.90;;;;;;5019372;28;20953;-77
2024/02/09 13:52:10;;;;;;;14.03;4.93;;;14.30;99.90;;;;;;5003886;28;20985;-76
2024/02/09 13:54:57;;;;;;;13.37;4.03;;;14.30;99.90;;;;;;5012919;28;20800;-76
2024/02/09 13:57:46;;;;;;;10.73;3.97;;;14.30;99.90;;;;;;5030370;28;20437;-76
2024/02/09 14:00:34;;;;;;;10.90;3.23;;;14.30;99.90;;;;;;5013323;28;20842;-76
2024/02/09 14:03:20;;;;;;;10.10;3.30;;;14.30;99.90;;;;;;5020652;28;20473;-76
2024/02/09 14:06:06;;;;;;;8.97;3.47;;;14.30;99.90;;;;;;5022008;28;20927;-77
2024/02/09 14:08:55;;;;;;;9.80;4.83;;;14.30;99.90;;;;;;5019950;28;20420;-76
2024/02/09 14:11:41;;;;;;;11.77;2.80;;;14.20;99.90;;;;;;5018950;28;20820;-75
2024/02/09 14:14:27;;;;;;;10.03;3.20;;;14.20;99.90;;;;;;5013728;28;20447;-77
2024/02/09 14:17:15;;;;;;;11.20;3.53;;;14.20;99.90;;;;;;5007985;28;20424;-77
2024/02/09 14:20:01;;;;;;;13.10;3.30;;;14.20;99.90;;;;;;5013397;28;20507;-75
2024/02/09 14:22:47;;;;;;;6.23;2.30;;;14.20;99.90;;;;;;5018437;28;20533;-76
2024/02/09 14:25:33;;;;;;;4.67;2.30;;;14.10;99.90;;;;;;5021602;28;20449;-76
2024/02/09 14:28:20;;;;;;;7.77;3.20;;;14.10;99.90;;;;;;5010731;28;20460;-77
2024/02/09 14:31:05;;;;;;;6.50;2.30;;;14.00;99.90;;;;;;5025627;28;20451;-76
2024/02/09 14:33:53;;;;;;;8.43;2.70;;;14.10;99.90;;;;;;5017706;28;20440;-76
2024/02/09 14:36:39;;;;;;;6.00;2.47;;;14.10;99.90;;;;;;5011315;28;20425;-76
2024/02/09 14:39:25;;;;;;;7.07;2.60;;;14.00;99.90;;;;;;5014993;28;20434;-77
2024/02/09 14:42:11;;;;;;;7.60;3.00;;;14.00;99.90;;;;;;5014847;28;20425;-75
2024/02/09 14:44:58;;;;;;;4.20;2.23;;;14.00;99.90;;;;;;5022587;28;20411;-76
2024/02/09 14:47:44;;;;;;;6.63;2.60;;;14.00;99.90;;;;;;5018299;28;20440;-75
2024/02/09 14:50:32;;;;;;;9.53;2.50;;;14.00;99.90;;;;;;5027464;28;20763;-76
2024/02/09 14:53:18;;;;;;;6.97;2.43;;;14.00;99.90;;;;;;5017518;28;20947;-76
2024/02/09 14:56:05;;;;;;;4.70;1.93;;;13.90;99.90;;;;;;5023287;28;20474;-76
2024/02/09 14:58:53;;;;;;;8.60;3.17;;;14.00;99.90;;;;;;5023336;28;20433;-76
2024/02/09 15:01:40;;;;;;;5.47;2.40;;;14.00;99.90;;;;;;5022197;28;20453;-76
2024/02/09 15:04:25;;;;;;;6.03;2.67;;;13.90;99.90;;;;;;5004272;28;20900;-78
2024/02/09 15:07:14;;;;;;;8.67;2.67;;;13.90;99.90;;;;;;5022093;28;20418;-77
2024/02/09 15:09:59;;;;;;;9.07;2.83;;;13.90;99.90;;;;;;5016423;28;20474;-77
2024/02/09 15:12:45;;;;;;;6.50;2.60;;;13.90;99.90;;;;;;5019707;28;20857;-76
2024/02/09 15:15:30;;;;;;;4.33;2.60;;;13.90;99.90;;;;;;5010454;28;20571;-76
2024/02/09 15:18:16;;;;;;;3.97;1.90;;;13.90;99.90;;;;;;5012837;28;20452;-76
2024/02/09 15:21:01;;;;;;;5.97;2.43;;;13.90;99.90;;;;;;5009111;28;20942;-76
2024/02/09 15:23:49;;;;;;;8.60;2.57;;;14.00;99.90;;;;;;5008207;28;20961;-76
2024/02/09 15:26:35;;;;;;;5.53;2.40;;;14.00;99.90;;;;;;5006969;28;20555;-76
2024/02/09 15:29:24;;;;;;;9.47;2.80;;;13.90;99.90;;;;;;5007207;28;20466;-76
2024/02/09 15:32:13;;;;;;;15.50;2.60;;;13.90;99.90;;;;;;5007658;28;20489;-75
2024/02/09 15:34:58;;;;;;;11.73;3.07;;;13.90;99.90;;;;;;5010514;28;20848;-76
2024/02/09 15:37:44;;;;;;;6.50;2.40;;;13.90;99.90;;;;;;5008408;28;20464;-76
2024/02/09 15:40:31;;;;;;;8.73;2.40;;;13.80;99.90;;;;;;5012535;28;20440;-76
2024/02/09 15:43:17;;;;;;;10.23;3.30;;;13.80;99.90;;;;;;5012259;28;20449;-77
2024/02/09 15:46:03;;;;;;;6.70;1.97;;;13.80;99.90;;;;;;5007054;28;20503;-76
2024/02/09 15:48:51;;;;;;;8.87;2.60;;;13.80;99.90;;;;;;5011631;28;20822;-75
2024/02/09 15:51:37;;;;;;;6.53;2.30;;;13.80;99.90;;;;;;5005708;28;20487;-76
2024/02/09 15:54:23;;;;;;;10.40;2.80;;;13.80;99.90;;;;;;5009517;28;20539;-76
2024/02/09 15:57:10;;;;;;;9.47;2.20;;;13.80;99.90;;;;;;5008644;28;21011;-76
2024/02/09 15:59:56;;;;;;;7.27;2.33;;;13.80;99.90;;;;;;5009992;28;20863;-77
2024/02/09 16:02:42;;;;;;;4.00;2.13;;;13.80;99.90;;;;;;5005681;28;20453;-77
2024/02/09 16:05:28;;;;;;;7.57;2.50;;;13.80;99.90;;;;;;5012466;28;20450;-76
2024/02/09 16:08:13;;;;;;;5.10;2.07;;;13.80;99.90;;;;;;5016894;28;20912;-75
2024/02/09 16:10:59;;;;;;;8.90;2.73;;;13.80;99.90;;;;;;5010038;28;20497;-76